Terminal Aerodrome Forecast
Issued by NWS Wichita, KS

Home | Current Version | Previous Version | Graphics & Text | Print | Product List | Glossary On
Versions: 1 2 3 4 5 6 7 8 9 10 11 12 13 14 15 16 17 18 19 20 21 22 23 24 25
000
FTUS43 KICT 191131
TAFICT
TAF
KICT 191131Z 1912/2012 VRB05KT P6SM FEW050
      TEMPO 1912/1914 5SM BR
     FM191900 34018G25KT P6SM VCSH OVC035
     FM200000 33012KT P6SM SCT040
     FM200200 31007KT P6SM SKC=

USA.gov is the U.S. government's official web portal to all federal, state and local government web resources and services.